หน้าหลัก
METAR-TAF:

METAR-TAF

ท่าอากาศยาน :

Kangiqsujuaq, ควิเบก, แคนาดา

ละติจูด: 61-35N, ลองจิจูด: 071-56W, ความสูง: 151 ม.

การสังเกตสภาพอากาศปัจจุบัน

รายงานได้ทำขึ้นเมื่อ 13 ชั่วโมงและ 18 นาทีที่แล้ว ณ เวลา 22:00 UTC
ลม 11 นอตจากตะวันตก
อุณหภูมิ -31°C
ความชื้น 61%
ความกดอากาศ 1004 hPa
ทัศนวิสัย: 24.1 กม.
มีเมฆน้อยที่ความสูง 2100 ฟุต

METAR: CYKG 222200Z 26011KT 15SM FEW021 M31/M36 A2964 RMK SC1 LST OBS/ NEXT 231300UTC SLP065

เวลา: 06:18 (11:18 UTC)

การพยากรณ์

รายงานได้ทำขึ้นเมื่อ 20 ชั่วโมงและ 38 นาทีที่แล้ว ณ เวลา 14:40 UTC
การพยากรณ์มีผลตั้งแต่วันที่ 22 ณ เวลา 15 UTC จนถึงวันที่ 22 ณ เวลา 22 UTC
ลม 15 นอตจากตะวันตก
ทัศนวิสัย: 10 กม.
มีเมฆน้อยที่ความสูง 2000 ฟุต
ชั่วคราว
ตั้งแต่วันที่ 22 ณ เวลา 15 UTC จนถึงวันที่ 22 ณ เวลา 22 UTC
ทัศนวิสัย: 8.0 กม.
มีเมฆเป็นส่วนมากเว้นเป็นระยะที่ความสูง 2000 ฟุต
หิมะฟุ้งปลิว

TAF: CYKG 221440Z 2215/2222 28015KT P6SM FEW020 TEMPO 2215/2222 5SM BLSN BKN020 RMK NXT FCST BY 231500Z

สังเกตการณ์สภาพอากาศและพยากรณ์อากาศของสนามบินมากกว่า 4000 แห่ง (รายงาน METAR และ TAF).

สถานีที่ดูได้จะแสดงไว้ด้วยจุดสีเหลืองและสีแดงบนแผนที่.

เลื่อนเมาส์ไปเหนือจุดเพื่อดูชื่อสถานี.

แล้วคลิกเพื่อดูสังเกตการณ์และการพยากรณ์สภาพอากาศ.

ในการเปลี่ยนแผนที่: คลิกที่ปุ่มสีเขียวที่มีกากบาทสีดำเพื่อซูมเข้า; ที่ปุ่มสีเขียวที่มีขีดเพื่อซูมออก; หรือที่ลูกศรสีเขียวเพื่อไปยังแผนที่ที่อยู่ติดกัน.


METAR-TAF: